Time;durP1;ratioP1;P1;durP2;ratioP2;P2;SDS_P1;SDS_P2;PMS_P1;PMS_P2;Temp;Humidity;BMP_temperature;BMP_pressure;BME280_temperature;BME280_humidity;BME280_pressure;Samples;Min_cycle;Max_cycle;Signal;HPM_P1;HPM_P2
2023/12/03 00:02:08;;;;;;;3.53;2.40;;;;;;;;;;5011653;28;20038;-72
2023/12/03 00:04:35;;;;;;;2.20;1.90;;;;;;;;;;4995508;28;20513;-71
2023/12/03 00:07:01;;;;;;;2.75;2.08;;;;;;;;;;5011770;28;20046;-72
2023/12/03 00:09:28;;;;;;;3.13;1.80;;;;;;;;;;5013065;28;20541;-72
2023/12/03 00:11:54;;;;;;;2.20;1.90;;;;;;;;;;5011519;28;20038;-72
2023/12/03 00:14:20;;;;;;;2.65;1.85;;;;;;;;;;5019952;28;20048;-72
2023/12/03 00:16:46;;;;;;;5.45;2.30;;;;;;;;;;5029858;28;20042;-72
2023/12/03 00:19:12;;;;;;;2.13;1.88;;;;;;;;;;5028451;28;20481;-72
2023/12/03 00:21:38;;;;;;;2.30;2.00;;;;;;;;;;5014310;28;20409;-72
2023/12/03 00:24:05;;;;;;;3.25;2.00;;;2.00;99.90;;;;;;5015944;28;20081;-72
2023/12/03 00:26:31;;;;;;;2.88;1.98;;;;;;;;;;5015565;28;20494;-72
2023/12/03 00:28:57;;;;;;;2.55;1.90;;;;;;;;;;4999234;28;20045;-72
2023/12/03 00:31:23;;;;;;;2.10;1.90;;;;;;;;;;5006326;28;20038;-72
2023/12/03 00:33:49;;;;;;;2.45;1.95;;;;;;;;;;5035314;28;20046;-72
2023/12/03 00:36:15;;;;;;;2.42;2.22;;;;;;;;;;5020119;28;20045;-72
2023/12/03 00:38:41;;;;;;;2.08;1.85;;;;;;;;;;5015240;28;20154;-72
2023/12/03 00:41:07;;;;;;;2.25;1.80;;;;;;;;;;5015306;28;20049;-72
2023/12/03 00:43:33;;;;;;;2.88;1.90;;;;;;;;;;5015220;28;20048;-71
2023/12/03 00:46:00;;;;;;;2.03;1.80;;;;;;;;;;5015363;28;20508;-72
2023/12/03 00:48:27;;;;;;;2.42;1.90;;;;;;;;;;4998921;28;20417;-71
2023/12/03 00:50:53;;;;;;;2.15;1.80;;;;;;;;;;5015247;28;20034;-72
2023/12/03 00:53:19;;;;;;;1.92;1.73;;;;;;;;;;4998827;28;20048;-72
2023/12/03 00:55:45;;;;;;;4.80;1.88;;;;;;;;;;5015301;28;20041;-72
2023/12/03 00:58:11;;;;;;;2.90;1.88;;;;;;;;;;4998501;28;20132;-72
2023/12/03 01:00:37;;;;;;;2.38;1.88;;;;;;;;;;5025643;28;20498;-72
2023/12/03 01:03:03;;;;;;;2.67;1.90;;;;;;;;;;5024407;28;20037;-72
2023/12/03 01:05:30;;;;;;;3.70;2.00;;;;;;;;;;5015234;28;20078;-72
2023/12/03 01:07:56;;;;;;;2.10;1.90;;;;;;;;;;4998610;28;20041;-72
2023/12/03 01:10:22;;;;;;;4.15;2.30;;;;;;;;;;5014596;28;20037;-72
2023/12/03 01:12:48;;;;;;;2.90;2.30;;;;;;;;;;5014754;28;20073;-72
2023/12/03 01:15:14;;;;;;;3.97;2.20;;;;;;;;;;5015736;28;20452;-72
2023/12/03 01:17:40;;;;;;;2.83;2.03;;;;;;;;;;5014993;28;20092;-72
2023/12/03 01:20:07;;;;;;;2.92;2.38;;;;;;;;;;5022172;28;20175;-71
2023/12/03 01:22:33;;;;;;;2.75;2.25;;;;;;;;;;5019951;28;20049;-72
2023/12/03 01:24:59;;;;;;;4.25;2.20;;;;;;;;;;5014421;28;20037;-72
2023/12/03 01:27:25;;;;;;;3.08;2.20;;;;;;;;;;4997968;28;20077;-71
2023/12/03 01:29:51;;;;;;;4.32;2.30;;;;;;;;;;5019716;28;20509;-72
2023/12/03 01:32:17;;;;;;;4.18;2.03;;;;;;;;;;5032084;28;20128;-72
2023/12/03 01:34:43;;;;;;;2.95;2.10;;;;;;;;;;5029194;28;20029;-72
2023/12/03 01:37:10;;;;;;;2.72;2.15;;;;;;;;;;5015904;28;20037;-72
2023/12/03 01:39:37;;;;;;;2.50;2.25;;;;;;;;;;5013909;28;20093;-72
2023/12/03 01:42:03;;;;;;;3.15;2.30;;;;;;;;;;5019382;28;20068;-72
2023/12/03 01:44:29;;;;;;;4.22;2.80;;;;;;;;;;5017405;28;20052;-72
2023/12/03 01:46:58;;;;;;;4.07;2.55;;;1.10;99.90;;;;;;5030870;28;20041;-72
2023/12/03 01:49:24;;;;;;;3.15;2.40;;;;;;;;;;5013834;28;20046;-72
2023/12/03 01:51:50;;;;;;;4.15;2.60;;;;;;;;;;5014441;28;20049;-72
2023/12/03 01:54:17;;;;;;;4.13;2.35;;;;;;;;;;4997663;28;20370;-72
2023/12/03 01:56:43;;;;;;;3.40;2.53;;;;;;;;;;5013968;28;20144;-72
2023/12/03 01:59:10;;;;;;;4.97;2.70;;;1.20;99.90;;;;;;5030976;28;20041;-72
2023/12/03 02:01:36;;;;;;;3.83;2.53;;;;;;;;;;5033674;28;20055;-72
2023/12/03 02:04:02;;;;;;;2.75;2.42;;;;;;;;;;5016951;28;20054;-72
2023/12/03 02:06:28;;;;;;;5.32;2.97;;;;;;;;;;5025400;28;20111;-71
2023/12/03 02:08:54;;;;;;;4.15;2.30;;;;;;;;;;4997417;28;20129;-72
2023/12/03 02:11:21;;;;;;;3.28;2.55;;;;;;;;;;5017602;28;20096;-72
2023/12/03 02:13:48;;;;;;;4.07;2.55;;;;;;;;;;4997638;28;20038;-72
2023/12/03 02:16:14;;;;;;;4.03;2.67;;;;;;;;;;5016393;28;20069;-72
2023/12/03 02:18:40;;;;;;;4.03;2.95;;;;;;;;;;4998289;28;20100;-72
2023/12/03 02:21:06;;;;;;;2.85;2.45;;;;;;;;;;5012688;28;20480;-72
2023/12/03 02:23:32;;;;;;;2.92;2.15;;;;;;;;;;5013785;28;20033;-72
2023/12/03 02:25:58;;;;;;;3.75;2.58;;;;;;;;;;5013383;28;20042;-72
2023/12/03 02:28:25;;;;;;;2.80;2.50;;;;;;;;;;5013437;28;20049;-72
2023/12/03 02:30:51;;;;;;;3.15;2.40;;;;;;;;;;5013238;28;20133;-71
2023/12/03 02:33:17;;;;;;;3.50;2.47;;;;;;;;;;5013698;28;20132;-71
2023/12/03 02:35:43;;;;;;;4.00;2.80;;;;;;;;;;5013425;28;20049;-71
2023/12/03 02:38:09;;;;;;;3.25;2.58;;;;;;;;;;5012855;28;20171;-71
2023/12/03 02:40:37;;;;;;;3.42;2.70;;;0.70;99.90;;;;;;5031876;28;20046;-71
2023/12/03 02:43:03;;;;;;;4.25;2.50;;;;;;;;;;5022805;28;20394;-71
2023/12/03 02:45:29;;;;;;;2.78;2.35;;;;;;;;;;5007978;28;20048;-71
2023/12/03 02:47:55;;;;;;;3.20;2.90;;;;;;;;;;5032743;28;20048;-71
2023/12/03 02:50:21;;;;;;;3.03;2.33;;;;;;;;;;5001903;28;20372;-72
2023/12/03 02:52:48;;;;;;;4.22;2.65;;;;;;;;;;4996857;28;20040;-71
2023/12/03 02:55:14;;;;;;;3.13;2.38;;;;;;;;;;5025073;28;20091;-71
2023/12/03 02:57:40;;;;;;;2.65;2.40;;;;;;;;;;5032838;28;20037;-71
2023/12/03 03:00:06;;;;;;;2.70;2.50;;;;;;;;;;5020831;28;20038;-71
2023/12/03 03:02:33;;;;;;;3.08;2.17;;;;;;;;;;5012836;28;20038;-71
2023/12/03 03:04:59;;;;;;;3.92;2.70;;;;;;;;;;5004955;28;20121;-72
2023/12/03 03:07:25;;;;;;;2.55;2.20;;;;;;;;;;5032593;28;20055;-72
2023/12/03 03:09:51;;;;;;;2.58;2.35;;;;;;;;;;5026090;28;20037;-72
2023/12/03 03:12:17;;;;;;;2.78;2.50;;;;;;;;;;5018895;28;20033;-72
2023/12/03 03:14:43;;;;;;;2.45;2.20;;;;;;;;;;5011580;28;20394;-72
2023/12/03 03:17:09;;;;;;;2.63;2.20;;;;;;;;;;5012378;28;20398;-72
2023/12/03 03:19:35;;;;;;;3.20;2.50;;;;;;;;;;4996262;28;20041;-71
2023/12/03 03:22:02;;;;;;;4.05;2.42;;;;;;;;;;5012519;28;20407;-72
2023/12/03 03:24:28;;;;;;;2.75;2.45;;;;;;;;;;5012593;28;20068;-70
2023/12/03 03:26:54;;;;;;;2.72;2.35;;;;;;;;;;5015391;28;20051;-72
2023/12/03 03:29:20;;;;;;;2.88;2.13;;;;;;;;;;5031472;28;20100;-72
2023/12/03 03:31:46;;;;;;;3.42;2.67;;;;;;;;;;5014539;28;20374;-71
2023/12/03 03:34:12;;;;;;;2.67;2.20;;;;;;;;;;5002605;28;20034;-72
2023/12/03 03:36:38;;;;;;;3.45;2.60;;;;;;;;;;5016495;28;20038;-72
2023/12/03 03:39:04;;;;;;;4.05;2.70;;;;;;;;;;5012030;28;20433;-71
2023/12/03 03:41:30;;;;;;;2.67;2.30;;;;;;;;;;5012285;28;20100;-72
2023/12/03 03:43:56;;;;;;;3.40;2.40;;;;;;;;;;4996038;28;20045;-72
2023/12/03 03:46:22;;;;;;;3.38;2.50;;;;;;;;;;5013462;28;20042;-72
2023/12/03 03:48:48;;;;;;;2.95;2.45;;;;;;;;;;5011910;28;20494;-71
2023/12/03 03:51:14;;;;;;;4.40;2.58;;;;;;;;;;4996072;28;20077;-71
2023/12/03 03:53:40;;;;;;;4.82;2.95;;;;;;;;;;4998852;28;20120;-71
2023/12/03 03:56:11;;;;;;;4.75;2.72;;;;;;;;;;5015409;28;20487;-70
2023/12/03 03:58:37;;;;;;;3.47;2.60;;;;;;;;;;4995459;28;20050;-71
2023/12/03 04:01:08;;;;;;;3.45;2.53;;;;;;;;;;5011954;28;20049;-71
2023/12/03 04:03:34;;;;;;;4.13;3.22;;;;;;;;;;5011917;28;20041;-71
2023/12/03 04:06:00;;;;;;;6.82;3.25;;;0.30;99.90;;;;;;5012732;28;20038;-71
2023/12/03 04:08:26;;;;;;;6.97;3.63;;;;;;;;;;5004563;28;20141;-71
2023/12/03 04:10:52;;;;;;;5.50;3.50;;;;;;;;;;5015186;28;20386;-71
2023/12/03 04:13:19;;;;;;;7.30;3.72;;;;;;;;;;5012557;28;20084;-71
2023/12/03 04:15:45;;;;;;;5.30;3.17;;;;;;;;;;5011669;28;20045;-71
2023/12/03 04:18:11;;;;;;;5.85;3.67;;;;;;;;;;5012863;28;20119;-71
2023/12/03 04:20:37;;;;;;;7.22;3.95;;;;;;;;;;5014397;28;20124;-71
2023/12/03 04:23:03;;;;;;;5.68;4.00;;;;;;;;;;5017449;28;20100;-71
2023/12/03 04:25:30;;;;;;;5.22;4.03;;;;;;;;;;4995432;28;20042;-71
2023/12/03 04:27:56;;;;;;;5.60;3.97;;;;;;;;;;4995917;28;20077;-71
2023/12/03 04:30:22;;;;;;;7.43;4.15;;;;;;;;;;5012450;28;20030;-71
2023/12/03 04:32:48;;;;;;;6.47;4.20;;;;;;;;;;5028820;28;20120;-71
2023/12/03 04:35:15;;;;;;;5.93;4.20;;;;;;;;;;5031187;28;20041;-70
2023/12/03 04:37:41;;;;;;;5.43;4.28;;;;;;;;;;5006162;28;20061;-71
2023/12/03 04:40:09;;;;;;;7.30;4.90;;;;;;;;;;5011341;28;20521;-71
2023/12/03 04:42:35;;;;;;;6.78;4.30;;;;;;;;;;5011496;28;20073;-71
2023/12/03 04:45:02;;;;;;;5.53;4.68;;;;;;;;;;5011505;28;20140;-71
2023/12/03 04:47:29;;;;;;;7.80;5.45;;;;;;;;;;5020527;28;20041;-71
2023/12/03 04:49:55;;;;;;;7.70;5.38;;;;;;;;;;5015140;28;20130;-71
2023/12/03 04:52:21;;;;;;;7.40;4.88;;;;;;;;;;5007358;28;20034;-71
2023/12/03 04:54:47;;;;;;;7.28;5.38;;;;;;;;;;4995389;28;20042;-71
2023/12/03 04:57:13;;;;;;;6.95;4.80;;;;;;;;;;4996470;28;20125;-71
2023/12/03 04:59:39;;;;;;;6.57;5.22;;;;;;;;;;5015460;28;20045;-71
2023/12/03 05:02:05;;;;;;;5.82;5.05;;;;;;;;;;4995311;28;20104;-71
2023/12/03 05:04:31;;;;;;;6.65;5.18;;;;;;;;;;5011450;28;20049;-71
2023/12/03 05:06:57;;;;;;;5.90;4.78;;;;;;;;;;5012538;28;20077;-71
2023/12/03 05:09:23;;;;;;;7.72;5.40;;;;;;;;;;4998850;28;20052;-71
2023/12/03 05:11:49;;;;;;;8.15;5.75;;;;;;;;;;5014978;28;20037;-71
2023/12/03 05:14:15;;;;;;;7.30;5.50;;;;;;;;;;5015250;28;20038;-71
2023/12/03 05:16:41;;;;;;;9.13;5.70;;;;;;;;;;5020169;28;20563;-70
2023/12/03 05:19:08;;;;;;;7.38;5.43;;;;;;;;;;5015176;28;20041;-71
2023/12/03 05:21:34;;;;;;;9.35;5.82;;;;;;;;;;5014673;28;20103;-71
2023/12/03 05:24:00;;;;;;;8.13;5.10;;;;;;;;;;5014934;28;20128;-71
2023/12/03 05:26:26;;;;;;;8.27;5.65;;;;;;;;;;4998178;28;20053;-70
2023/12/03 05:28:52;;;;;;;7.65;5.72;;;;;;;;;;5014487;28;20046;-71
2023/12/03 05:31:18;;;;;;;10.13;6.18;;;;;;;;;;5014337;28;20131;-71
2023/12/03 05:33:44;;;;;;;7.40;5.57;;;;;;;;;;5014527;28;20049;-70
2023/12/03 05:36:20;;;;;;;8.88;5.78;;;0.10;99.90;;;;;;4999274;28;20038;-71
2023/12/03 05:38:46;;;;;;;6.93;5.45;;;;;;;;;;5014111;28;20414;-70
2023/12/03 05:41:12;;;;;;;7.53;5.20;;;;;;;;;;5014253;28;20052;-71
2023/12/03 05:43:40;;;;;;;9.60;6.10;;;;;;;;;;4999094;28;20096;-71
2023/12/03 05:46:06;;;;;;;9.18;5.78;;;;;;;;;;5007519;28;20133;-73
2023/12/03 05:48:32;;;;;;;7.47;5.80;;;;;;;;;;5008535;28;20220;-70
2023/12/03 05:50:58;;;;;;;8.63;6.03;;;;;;;;;;5033855;28;20041;-71
2023/12/03 05:53:24;;;;;;;8.82;5.97;;;;;;;;;;5015943;28;20044;-71
2023/12/03 05:55:50;;;;;;;8.75;6.07;;;;;;;;;;5017326;28;20091;-72
2023/12/03 05:58:16;;;;;;;7.97;6.05;;;;;;;;;;5033070;28;20081;-72
2023/12/03 06:00:42;;;;;;;9.98;6.65;;;;;;;;;;5017217;28;20041;-72
2023/12/03 06:03:08;;;;;;;9.93;6.32;;;;;;;;;;5002250;28;20574;-72
2023/12/03 06:05:34;;;;;;;11.15;6.72;;;;;;;;;;5014033;28;20037;-72
2023/12/03 06:08:00;;;;;;;10.18;6.65;;;;;;;;;;5015160;28;20053;-73
2023/12/03 06:10:26;;;;;;;10.27;7.40;;;;;;;;;;4997174;28;20552;-72
2023/12/03 06:12:52;;;;;;;9.00;6.35;;;;;;;;;;4997728;28;20356;-73
2023/12/03 06:15:19;;;;;;;13.10;7.60;;;;;;;;;;5013983;28;20034;-73
2023/12/03 06:17:45;;;;;;;11.27;7.60;;;;;;;;;;5016020;28;20485;-73
2023/12/03 06:20:11;;;;;;;12.07;7.47;;;;;;;;;;5024134;28;20103;-73
2023/12/03 06:22:37;;;;;;;11.43;7.88;;;;;;;;;;5032382;28;20064;-73
2023/12/03 06:25:03;;;;;;;11.82;7.50;;;;;;;;;;5016707;28;20041;-73
2023/12/03 06:27:29;;;;;;;12.23;7.82;;;;;;;;;;5024854;28;20044;-73
2023/12/03 06:29:57;;;;;;;13.70;8.45;;;;;;;;;;5013161;28;20092;-73
2023/12/03 06:32:23;;;;;;;12.30;7.47;;;;;;;;;;4997400;28;20096;-72
2023/12/03 06:34:49;;;;;;;11.73;7.15;;;;;;;;;;4997077;28;20038;-73
2023/12/03 06:37:15;;;;;;;13.55;7.82;;;;;;;;;;5014753;28;20103;-72
2023/12/03 06:39:41;;;;;;;13.25;7.70;;;;;;;;;;5016458;28;20061;-73
2023/12/03 06:42:07;;;;;;;18.58;7.07;;;;;;;;;;5015305;28;20120;-72
2023/12/03 06:44:33;;;;;;;20.08;7.53;;;;;;;;;;5014243;28;20128;-73
2023/12/03 06:46:59;;;;;;;17.95;7.53;;;;;;;;;;5014371;28;20038;-72
2023/12/03 06:49:25;;;;;;;16.67;8.77;;;;;;;;;;5014272;28;20042;-74
2023/12/03 06:51:51;;;;;;;12.13;7.22;;;;;;;;;;5012896;28;20237;-73
2023/12/03 06:54:18;;;;;;;13.90;8.27;;;;;;;;;;5015836;28;20038;-73
2023/12/03 06:56:44;;;;;;;18.85;9.55;;;;;;;;;;5029860;28;20044;-73
2023/12/03 06:59:10;;;;;;;17.05;9.88;;;;;;;;;;5013127;28;20056;-73
2023/12/03 07:01:36;;;;;;;17.70;9.95;;;;;;;;;;5031029;28;20154;-73
2023/12/03 07:04:02;;;;;;;21.42;10.95;;;;;;;;;;5021293;28;20049;-74
2023/12/03 07:06:28;;;;;;;21.13;11.20;;;;;;;;;;5032536;28;20037;-73
2023/12/03 07:08:54;;;;;;;21.38;11.02;;;;;;;;;;5017293;28;20514;-73
2023/12/03 07:11:21;;;;;;;22.92;12.00;;;;;;;;;;5023443;28;20045;-74
2023/12/03 07:13:47;;;;;;;23.48;11.90;;;;;;;;;;5033556;28;20485;-73
2023/12/03 07:16:13;;;;;;;24.58;12.57;;;;;;;;;;5015899;28;20037;-73
2023/12/03 07:18:43;;;;;;;26.75;13.57;;;;;;;;;;5032190;28;20048;-72
2023/12/03 07:21:10;;;;;;;25.67;12.73;;;0.40;99.90;;;;;;5032178;28;20072;-72
2023/12/03 07:23:36;;;;;;;28.10;13.85;;;;;;;;;;5032355;28;20049;-72
2023/12/03 07:26:08;;;;;;;29.17;13.57;;;;;;;;;;5014961;28;20042;-73
2023/12/03 07:28:34;;;;;;;26.33;13.07;;;0.80;99.90;;;;;;5032038;28;20076;-71
2023/12/03 07:31:00;;;;;;;28.25;13.50;;;;;;;;;;5014527;28;20490;-71
2023/12/03 07:33:26;;;;;;;27.42;13.40;;;;;;;;;;5032072;28;20520;-72
2023/12/03 07:35:52;;;;;;;30.60;14.35;;;;;;;;;;5029610;28;20532;-72
2023/12/03 07:38:18;;;;;;;30.25;14.57;;;;;;;;;;5032011;28;20108;-72
2023/12/03 07:40:45;;;;;;;29.00;14.00;;;;;;;;;;5032362;28;20509;-72
2023/12/03 07:43:11;;;;;;;26.58;13.10;;;;;;;;;;4999230;28;20041;-72
2023/12/03 07:45:37;;;;;;;28.75;14.35;;;;;;;;;;5032142;28;20131;-72
2023/12/03 07:48:03;;;;;;;30.13;14.20;;;;;;;;;;5015304;28;20048;-73
2023/12/03 07:50:29;;;;;;;32.00;15.00;;;;;;;;;;5015278;28;20080;-72
2023/12/03 07:52:56;;;;;;;27.42;13.65;;;;;;;;;;5031889;28;20033;-72
2023/12/03 07:55:22;;;;;;;27.08;13.23;;;;;;;;;;5015137;28;20095;-73
2023/12/03 07:57:49;;;;;;;26.48;13.07;;;;;;;;;;5014946;28;20053;-72
2023/12/03 08:00:15;;;;;;;30.05;15.13;;;;;;;;;;5012063;28;20053;-73
2023/12/03 08:02:42;;;;;;;31.13;14.73;;;;;;;;;;5030985;28;20037;-72
2023/12/03 08:05:08;;;;;;;33.15;15.25;;;;;;;;;;5014693;28;20052;-73
2023/12/03 08:07:35;;;;;;;32.25;15.05;;;;;;;;;;5031640;28;20060;-72
2023/12/03 08:10:01;;;;;;;35.83;15.90;;;;;;;;;;5031324;28;20045;-72
2023/12/03 08:12:28;;;;;;;38.67;16.58;;;;;;;;;;5031314;28;20038;-72
2023/12/03 08:14:55;;;;;;;39.72;16.65;;;;;;;;;;5014855;28;20124;-71
2023/12/03 08:17:21;;;;;;;35.10;16.08;;;;;;;;;;4984955;28;20398;-71
2023/12/03 08:19:47;;;;;;;38.22;15.95;;;;;;;;;;4995485;28;20041;-71
2023/12/03 08:22:13;;;;;;;37.50;17.05;;;;;;;;;;5016931;28;20038;-71
2023/12/03 08:24:39;;;;;;;39.42;17.08;;;;;;;;;;5015071;28;20393;-71
2023/12/03 08:27:05;;;;;;;38.42;16.55;;;;;;;;;;5024487;28;20042;-71
2023/12/03 08:29:32;;;;;;;38.10;17.00;;;;;;;;;;5024599;28;20525;-71
2023/12/03 08:31:58;;;;;;;44.22;17.20;;;;;;;;;;5014221;28;20049;-71
2023/12/03 08:34:26;;;;;;;38.88;17.60;;;;;;;;;;5011134;28;20169;-72
2023/12/03 08:36:52;;;;;;;43.40;18.15;;;;;;;;;;5005414;28;20100;-71
2023/12/03 08:39:18;;;;;;;40.33;17.13;;;;;;;;;;5030877;28;20068;-71
2023/12/03 08:41:44;;;;;;;40.53;17.52;;;;;;;;;;5032022;28;20057;-71
2023/12/03 08:44:10;;;;;;;43.00;18.63;;;;;;;;;;5018021;28;20552;-71
2023/12/03 08:46:36;;;;;;;46.85;19.00;;;;;;;;;;5007021;28;20063;-71
2023/12/03 08:49:02;;;;;;;46.58;20.23;;;;;;;;;;5018359;28;20091;-71
2023/12/03 08:51:28;;;;;;;49.50;20.33;;;;;;;;;;5033968;28;20121;-70
2023/12/03 08:53:55;;;;;;;42.53;19.50;;;;;;;;;;5004415;28;20624;-71
2023/12/03 08:56:21;;;;;;;44.58;20.20;;;;;;;;;;5010192;28;20424;-71
2023/12/03 08:58:48;;;;;;;47.35;19.60;;;;;;;;;;5018832;28;20133;-71
2023/12/03 09:01:14;;;;;;;42.17;19.95;;;;;;;;;;5017672;28;20095;-72
2023/12/03 09:03:40;;;;;;;43.58;20.63;;;;;;;;;;5024244;28;20034;-71
2023/12/03 09:06:07;;;;;;;41.97;19.88;;;1.60;99.90;;;;;;5026287;28;20125;-71
2023/12/03 09:08:33;;;;;;;42.20;19.38;;;;;;;;;;5016151;28;20056;-71
2023/12/03 09:10:59;;;;;;;41.28;20.10;;;;;;;;;;5018095;28;20408;-70
2023/12/03 09:13:25;;;;;;;43.65;20.55;;;;;;;;;;5027853;28;20038;-71
2023/12/03 09:15:51;;;;;;;41.85;21.13;;;;;;;;;;5015273;28;20049;-70
2023/12/03 09:18:17;;;;;;;42.88;22.02;;;;;;;;;;5016549;28;20324;-71
2023/12/03 09:20:43;;;;;;;42.55;20.33;;;;;;;;;;5017731;28;20041;-70
2023/12/03 09:23:10;;;;;;;43.25;21.38;;;;;;;;;;5030396;28;20124;-70
2023/12/03 09:25:36;;;;;;;45.22;20.85;;;;;;;;;;5014665;28;20050;-70
2023/12/03 09:28:04;;;;;;;40.40;21.05;;;;;;;;;;5031419;28;20046;-70
2023/12/03 09:30:30;;;;;;;41.33;20.65;;;;;;;;;;5020432;28;20081;-70
2023/12/03 09:32:56;;;;;;;43.55;21.30;;;;;;;;;;5015659;28;20037;-70
2023/12/03 09:35:22;;;;;;;40.25;21.55;;;;;;;;;;5020462;28;20120;-72
2023/12/03 09:37:49;;;;;;;41.63;22.38;;;;;;;;;;5033726;28;20076;-70
2023/12/03 09:40:15;;;;;;;42.03;22.05;;;;;;;;;;5020179;28;20041;-70
2023/12/03 09:42:46;;;;;;;45.22;21.33;;;;;;;;;;5017779;28;20037;-68
2023/12/03 09:45:13;;;;;;;43.45;21.42;;;;;;;;;;5025711;28;20061;-71
2023/12/03 09:47:41;;;;;;;40.60;20.65;;;;;;;;;;5033684;28;20419;-71
2023/12/03 09:50:08;;;;;;;38.85;21.55;;;;;;;;;;5018018;28;20034;-70
2023/12/03 09:52:36;;;;;;;42.03;21.42;;;1.90;99.90;;;;;;5002293;28;20041;-71
2023/12/03 09:55:03;;;;;;;42.28;21.85;;;2.00;99.90;;;;;;5013671;28;20103;-71
2023/12/03 09:57:29;;;;;;;37.83;21.52;;;;;;;;;;5026538;28;20113;-70
2023/12/03 10:00:02;;;;;;;38.13;22.15;;;;;;;;;;5006908;28;20041;-70
2023/12/03 10:02:29;;;;;;;38.85;20.77;;;;;;;;;;5021121;28;20054;-70
2023/12/03 10:04:58;;;;;;;39.85;20.27;;;;;;;;;;5017842;28;20088;-71
2023/12/03 10:07:27;;;;;;;37.97;20.75;;;;;;;;;;5033463;28;20041;-71
2023/12/03 10:09:54;;;;;;;37.97;20.55;;;;;;;;;;5025873;28;20152;-71
2023/12/03 10:12:24;;;;;;;39.22;20.33;;;2.20;99.90;;;;;;5026331;28;20038;-70
2023/12/03 10:14:50;;;;;;;35.90;19.80;;;;;;;;;;5021535;28;20052;-71
2023/12/03 10:17:20;;;;;;;38.05;21.42;;;;;;;;;;5032635;28;20397;-71
2023/12/03 10:19:46;;;;;;;33.78;19.58;;;;;;;;;;5026849;28;20038;-71
2023/12/03 10:22:12;;;;;;;36.38;20.20;;;;;;;;;;5020143;28;20486;-70
2023/12/03 10:24:56;;;;;;;36.72;20.10;;;;;;;;;;5026228;28;20104;-70
2023/12/03 10:27:28;;;;;;;34.80;20.05;;;2.30;99.90;;;;;;5023699;28;20132;-71
2023/12/03 10:29:54;;;;;;;33.75;19.38;;;;;;;;;;5025666;28;20385;-70
2023/12/03 10:32:22;;;;;;;33.15;20.08;;;;;;;;;;5022915;28;20038;-71
2023/12/03 10:34:50;;;;;;;30.80;18.58;;;;;;;;;;5025132;28;20049;-70
2023/12/03 10:37:16;;;;;;;36.42;20.45;;;;;;;;;;5027049;28;20144;-71
2023/12/03 10:39:42;;;;;;;36.05;19.77;;;;;;;;;;5019734;28;20506;-71
2023/12/03 10:42:09;;;;;;;32.95;20.42;;;;;;;;;;5030813;28;20048;-71
2023/12/03 10:44:38;;;;;;;35.08;20.00;;;;;;;;;;5030948;28;20041;-70
2023/12/03 10:47:04;;;;;;;35.95;19.65;;;;;;;;;;5021909;28;20107;-70
2023/12/03 10:49:32;;;;;;;36.83;19.60;;;;;;;;;;5026613;28;20037;-71
2023/12/03 10:51:58;;;;;;;35.90;20.17;;;;;;;;;;5032443;28;20055;-71
2023/12/03 10:54:25;;;;;;;33.85;19.90;;;2.00;99.90;;;;;;5023714;28;20044;-71
2023/12/03 10:56:55;;;;;;;33.80;19.00;;;;;;;;;;5017924;28;20092;-71
2023/12/03 10:59:29;;;;;;;31.45;19.00;;;2.00;99.90;;;;;;5022066;28;20113;-71
2023/12/03 11:01:58;;;;;;;30.20;18.63;;;2.10;99.90;;;;;;5024940;28;20045;-72
2023/12/03 11:04:39;;;;;;;31.45;18.88;;;2.00;99.90;;;;;;5023358;28;20042;-71
2023/12/03 11:07:07;;;;;;;30.15;18.80;;;;;;;;;;5022829;28;20037;-71
2023/12/03 11:09:35;;;;;;;29.73;17.73;;;;;;;;;;5020983;28;20049;-71
2023/12/03 11:12:02;;;;;;;32.10;18.35;;;;;;;;;;5022796;28;20558;-71
2023/12/03 11:14:29;;;;;;;31.27;17.95;;;1.80;99.90;;;;;;5018912;28;20038;-71
2023/12/03 11:16:58;;;;;;;32.67;18.13;;;;;;;;;;5024493;28;20037;-71
2023/12/03 11:19:25;;;;;;;30.48;16.95;;;1.90;99.90;;;;;;5013483;28;20075;-71
2023/12/03 11:21:57;;;;;;;33.45;17.52;;;;;;;;;;5028679;28;20041;-71
2023/12/03 11:24:32;;;;;;;31.13;17.35;;;;;;;;;;5022931;28;20049;-71
2023/12/03 11:26:58;;;;;;;35.33;18.15;;;;;;;;;;5008735;28;20068;-71
2023/12/03 11:29:50;;;;;;;35.63;19.23;;;1.70;99.90;;;;;;5021975;28;20436;-71
2023/12/03 11:32:17;;;;;;;40.03;18.67;;;;;;;;;;5029852;28;20038;-71
2023/12/03 11:34:43;;;;;;;35.85;20.10;;;;;;;;;;5030976;28;20496;-71
2023/12/03 11:37:09;;;;;;;33.63;18.38;;;;;;;;;;5013298;28;20072;-71
2023/12/03 11:39:48;;;;;;;36.13;18.83;;;1.80;99.90;;;;;;5026102;28;20064;-71
2023/12/03 11:42:16;;;;;;;37.78;19.17;;;;;;;;;;5023717;28;20511;-72
2023/12/03 11:44:43;;;;;;;34.97;17.60;;;;;;;;;;5020275;28;20049;-71
2023/12/03 11:47:10;;;;;;;36.33;18.63;;;;;;;;;;5012046;28;20045;-71
2023/12/03 11:49:37;;;;;;;33.05;18.75;;;;;;;;;;5030756;28;20049;-71
2023/12/03 11:52:03;;;;;;;37.85;19.80;;;;;;;;;;5014157;28;20501;-71
2023/12/03 11:54:37;;;;;;;39.08;20.30;;;;;;;;;;5029647;28;20069;-71
2023/12/03 11:57:11;;;;;;;40.95;20.33;;;;;;;;;;5014194;28;20469;-71
2023/12/03 11:59:38;;;;;;;38.55;20.60;;;;;;;;;;5028036;28;20088;-71
2023/12/03 12:02:04;;;;;;;38.40;19.83;;;;;;;;;;5030885;28;20045;-71
2023/12/03 12:04:31;;;;;;;37.80;19.90;;;;;;;;;;5030904;28;20045;-71
2023/12/03 12:06:57;;;;;;;35.67;18.42;;;;;;;;;;5030325;28;20052;-74
2023/12/03 12:09:24;;;;;;;39.00;20.08;;;2.00;99.90;;;;;;5015203;28;20510;-69
2023/12/03 12:11:51;;;;;;;35.97;19.42;;;;;;;;;;5011552;28;20041;-72
2023/12/03 12:14:17;;;;;;;43.90;21.38;;;;;;;;;;5021561;28;20685;-71
2023/12/03 12:16:46;;;;;;;38.53;20.08;;;;;;;;;;5016229;28;20139;-71
2023/12/03 12:19:13;;;;;;;38.60;19.92;;;;;;;;;;5037625;28;20042;-71
2023/12/03 12:21:56;;;;;;;41.33;21.73;;;2.20;99.90;;;;;;5020422;28;20041;-71
2023/12/03 12:24:22;;;;;;;40.55;20.13;;;;;;;;;;5038120;28;20076;-71
2023/12/03 12:26:49;;;;;;;41.50;19.52;;;;;;;;;;5038229;28;20099;-71
2023/12/03 12:29:15;;;;;;;37.20;19.25;;;;;;;;;;5037718;28;20124;-71
2023/12/03 12:31:41;;;;;;;39.85;20.63;;;;;;;;;;5037863;28;20042;-71
2023/12/03 12:34:07;;;;;;;37.17;19.27;;;;;;;;;;5037809;28;20039;-71
2023/12/03 12:36:33;;;;;;;41.50;20.10;;;;;;;;;;5021351;28;20072;-72
2023/12/03 12:39:00;;;;;;;45.95;22.67;;;;;;;;;;5037696;28;20057;-72
2023/12/03 12:41:36;;;;;;;38.78;20.88;;;;;;;;;;5004984;28;20052;-72
2023/12/03 12:44:03;;;;;;;40.00;20.65;;;;;;;;;;5038150;28;20053;-72
2023/12/03 12:46:29;;;;;;;42.67;20.73;;;;;;;;;;5038895;28;20524;-71
2023/12/03 12:49:21;;;;;;;41.10;21.67;;;3.30;99.90;;;;;;5005286;28;20045;-71
2023/12/03 12:51:47;;;;;;;34.30;18.83;;;;;;;;;;5036562;28;20042;-72
2023/12/03 12:54:14;;;;;;;34.75;20.20;;;;;;;;;;5038018;28;20280;-71
2023/12/03 12:56:42;;;;;;;36.05;19.42;;;;;;;;;;5037662;28;20044;-71
2023/12/03 12:59:11;;;;;;;35.83;19.42;;;;;;;;;;5037619;28;20044;-71
2023/12/03 13:01:37;;;;;;;31.60;17.65;;;;;;;;;;5031000;28;20052;-71
2023/12/03 13:04:06;;;;;;;36.08;18.65;;;;;;;;;;5035203;28;20106;-72
2023/12/03 13:06:33;;;;;;;32.25;17.38;;;;;;;;;;5035226;28;20128;-71
2023/12/03 13:09:00;;;;;;;38.78;18.27;;;;;;;;;;5035263;28;20045;-72
2023/12/03 13:11:26;;;;;;;33.00;17.42;;;;;;;;;;5034021;28;20030;-71
2023/12/03 13:13:52;;;;;;;32.35;16.83;;;;;;;;;;5036963;28;20052;-71
2023/12/03 13:16:18;;;;;;;34.92;17.60;;;;;;;;;;5019902;28;20037;-71
2023/12/03 13:18:44;;;;;;;31.02;17.27;;;;;;;;;;5020345;28;20037;-72
2023/12/03 13:21:10;;;;;;;31.27;16.85;;;;;;;;;;5018711;28;20053;-71
2023/12/03 13:23:36;;;;;;;32.60;17.45;;;;;;;;;;5012022;28;20041;-71
2023/12/03 13:26:02;;;;;;;35.50;16.75;;;;;;;;;;4998393;28;20033;-72
2023/12/03 13:28:29;;;;;;;30.85;16.42;;;;;;;;;;5027029;28;20049;-72
2023/12/03 13:30:55;;;;;;;27.50;15.48;;;;;;;;;;5034441;28;20033;-72
2023/12/03 13:33:21;;;;;;;25.95;14.90;;;;;;;;;;5017614;28;20113;-72
2023/12/03 13:35:47;;;;;;;29.15;15.27;;;;;;;;;;5014536;28;20052;-72
2023/12/03 13:38:13;;;;;;;27.10;14.65;;;;;;;;;;5029950;28;20485;-72
2023/12/03 13:40:39;;;;;;;28.48;14.80;;;;;;;;;;5033328;28;20494;-72
2023/12/03 13:43:05;;;;;;;27.88;15.23;;;;;;;;;;5005256;28;20486;-71
2023/12/03 13:45:31;;;;;;;25.00;13.95;;;;;;;;;;4981867;28;20044;-71
2023/12/03 13:47:57;;;;;;;26.83;14.23;;;;;;;;;;5016034;28;20049;-71
2023/12/03 13:50:23;;;;;;;23.85;13.05;;;;;;;;;;5019365;28;20364;-71
2023/12/03 13:52:49;;;;;;;26.90;14.45;;;;;;;;;;5026424;28;20034;-71
2023/12/03 13:55:16;;;;;;;22.92;13.43;;;;;;;;;;5017116;28;20064;-70
2023/12/03 13:57:42;;;;;;;26.25;13.98;;;;;;;;;;5030235;28;20050;-71
2023/12/03 14:00:08;;;;;;;23.25;13.23;;;;;;;;;;5013107;28;20068;-72
2023/12/03 14:02:35;;;;;;;24.77;13.00;;;;;;;;;;5012619;28;20191;-71
2023/12/03 14:05:01;;;;;;;23.77;12.57;;;;;;;;;;5014182;28;20560;-71
2023/12/03 14:07:27;;;;;;;24.42;13.35;;;;;;;;;;5016228;28;20042;-71
2023/12/03 14:09:53;;;;;;;26.38;13.57;;;;;;;;;;5031258;28;20045;-72
2023/12/03 14:12:19;;;;;;;23.77;13.07;;;;;;;;;;5033468;28;20091;-71
2023/12/03 14:14:46;;;;;;;22.67;11.85;;;;;;;;;;5000190;28;20033;-71
2023/12/03 14:17:13;;;;;;;26.30;13.07;;;;;;;;;;5025748;28;20085;-71
2023/12/03 14:19:39;;;;;;;24.33;12.75;;;;;;;;;;5006700;28;20052;-70